createdAt,value
2019-04-25T00:01:11.550Z,14.50
2019-04-25T00:03:43.955Z,14.50
2019-04-25T00:06:13.739Z,14.60
2019-04-25T00:08:43.083Z,14.60
2019-04-25T00:11:13.325Z,14.50
2019-04-25T00:13:43.109Z,14.50
2019-04-25T00:16:13.067Z,14.40
2019-04-25T00:18:42.977Z,14.40
2019-04-25T00:21:28.529Z,14.40
2019-04-25T00:24:02.672Z,14.40
2019-04-25T00:26:33.236Z,14.40
2019-04-25T00:29:04.029Z,14.30
2019-04-25T00:31:33.013Z,14.40
2019-04-25T00:34:02.226Z,14.30
2019-04-25T00:36:31.837Z,14.30
2019-04-25T00:39:02.022Z,14.40
2019-04-25T00:41:32.029Z,14.30
2019-04-25T00:44:02.403Z,14.30
2019-04-25T00:46:32.231Z,14.30
2019-04-25T00:49:02.541Z,14.30
2019-04-25T00:51:31.815Z,14.20
2019-04-25T00:54:02.425Z,14.20
2019-04-25T00:56:32.190Z,14.20
2019-04-25T00:59:11.846Z,14.10
2019-04-25T01:01:51.448Z,14.10
2019-04-25T01:04:21.951Z,14.10
2019-04-25T01:06:52.005Z,14.10
2019-04-25T01:09:22.270Z,14.20
2019-04-25T01:11:52.336Z,14.20
2019-04-25T01:14:22.117Z,14.20
2019-04-25T01:16:52.707Z,14.20
2019-04-25T01:19:23.352Z,14.30
2019-04-25T01:21:54.144Z,14.20
2019-04-25T01:24:24.034Z,14.20
2019-04-25T01:26:53.811Z,14.20
2019-04-25T01:29:23.537Z,14.20
2019-04-25T01:31:54.075Z,14.10
2019-04-25T01:34:25.799Z,14.10
2019-04-25T01:36:59.170Z,14.00
2019-04-25T01:39:41.432Z,14.00
2019-04-25T01:42:17.321Z,14.00
2019-04-25T01:44:51.627Z,14.10
2019-04-25T01:47:23.807Z,14.10
2019-04-25T01:49:54.370Z,14.10
2019-04-25T01:52:23.583Z,14.00
2019-04-25T01:54:55.670Z,14.10
2019-04-25T01:57:24.825Z,14.10
2019-04-25T01:59:54.189Z,14.00
2019-04-25T02:02:25.639Z,14.00
2019-04-25T02:04:56.651Z,14.00
2019-04-25T02:07:25.007Z,13.90
2019-04-25T02:09:54.894Z,13.90
2019-04-25T02:12:26.545Z,13.80
2019-04-25T02:14:55.974Z,13.80
2019-04-25T02:17:25.718Z,13.90
2019-04-25T02:19:57.814Z,13.90
2019-04-25T02:22:26.714Z,13.90
2019-04-25T02:24:56.252Z,13.90
2019-04-25T02:27:25.894Z,13.90
2019-04-25T02:29:55.951Z,13.80
2019-04-25T02:32:25.517Z,13.90
2019-04-25T02:34:59.109Z,13.90
2019-04-25T02:37:25.626Z,13.90
2019-04-25T02:39:58.023Z,13.90
2019-04-25T02:42:25.194Z,13.90
2019-04-25T02:44:57.879Z,13.90
2019-04-25T02:47:34.482Z,13.90
2019-04-25T02:50:08.584Z,13.80
2019-04-25T02:52:37.843Z,13.80
2019-04-25T02:55:10.691Z,13.80
2019-04-25T02:57:37.805Z,13.80
2019-04-25T03:00:15.002Z,13.80
2019-04-25T03:02:44.585Z,13.80
2019-04-25T03:05:14.344Z,13.80
2019-04-25T03:07:44.772Z,13.80
2019-04-25T03:10:14.878Z,13.80
2019-04-25T03:12:44.673Z,13.80
2019-04-25T03:15:14.482Z,13.80
2019-04-25T03:17:44.490Z,13.80
2019-04-25T03:20:19.217Z,13.80
2019-04-25T03:22:47.971Z,13.80
2019-04-25T03:25:17.636Z,13.80
2019-04-25T03:27:46.926Z,13.80
2019-04-25T03:30:17.909Z,13.80
2019-04-25T03:32:46.726Z,13.80
2019-04-25T03:35:16.729Z,13.80
2019-04-25T03:37:45.669Z,13.80
2019-04-25T03:40:14.460Z,13.80
2019-04-25T03:42:43.938Z,13.80
2019-04-25T03:45:13.989Z,13.80
2019-04-25T03:47:43.504Z,13.90
2019-04-25T03:50:13.996Z,13.90
2019-04-25T03:52:43.604Z,13.90
2019-04-25T03:55:14.290Z,13.90
2019-04-25T03:57:46.566Z,13.90
2019-04-25T04:00:16.718Z,14.00
2019-04-25T04:02:46.640Z,14.00
2019-04-25T04:05:15.662Z,14.00
2019-04-25T04:07:44.597Z,14.00
2019-04-25T04:10:15.521Z,14.00
2019-04-25T04:12:44.316Z,14.00
2019-04-25T04:15:15.935Z,14.00
2019-04-25T04:18:06.358Z,14.00
2019-04-25T04:20:39.508Z,14.00
2019-04-25T04:23:16.074Z,14.00
2019-04-25T04:25:45.339Z,14.00
2019-04-25T04:28:14.949Z,14.10
2019-04-25T04:30:45.383Z,14.10
2019-04-25T04:33:26.809Z,14.10
2019-04-25T04:35:45.883Z,14.20
2019-04-25T04:38:15.522Z,14.20
2019-04-25T04:40:45.179Z,14.30
2019-04-25T04:43:15.335Z,14.30
2019-04-25T04:45:46.025Z,14.40
2019-04-25T04:48:15.581Z,14.40
2019-04-25T04:50:44.450Z,14.50
2019-04-25T04:53:14.962Z,14.50
2019-04-25T04:55:43.986Z,14.70
2019-04-25T04:58:15.017Z,14.70
2019-04-25T05:00:44.134Z,14.90
2019-04-25T05:03:15.593Z,14.90
2019-04-25T05:05:55.339Z,15.00
2019-04-25T05:08:25.962Z,15.10
2019-04-25T05:10:57.280Z,15.20
2019-04-25T05:13:25.476Z,15.20
2019-04-25T05:15:54.387Z,15.30
2019-04-25T05:18:36.519Z,15.30
2019-04-25T05:20:54.306Z,15.30
2019-04-25T05:23:29.601Z,15.30
2019-04-25T05:25:58.648Z,15.30
2019-04-25T05:28:27.738Z,15.30
2019-04-25T05:30:58.268Z,15.40
2019-04-25T05:33:27.371Z,15.40
2019-04-25T05:35:56.148Z,15.40
2019-04-25T05:38:25.275Z,15.40
2019-04-25T05:40:58.741Z,15.50
2019-04-25T05:43:29.143Z,15.50
2019-04-25T05:45:58.005Z,15.50
2019-04-25T05:48:26.974Z,15.70
2019-04-25T05:50:55.993Z,15.80
2019-04-25T05:53:25.346Z,16.00
2019-04-25T05:55:56.462Z,16.10
2019-04-25T05:58:25.896Z,16.20
2019-04-25T06:00:56.285Z,16.30
2019-04-25T06:03:26.374Z,16.40
2019-04-25T06:05:56.370Z,16.40
2019-04-25T06:08:27.974Z,16.50
2019-04-25T06:11:01.786Z,16.50
2019-04-25T06:13:41.068Z,16.60
2019-04-25T06:16:14.202Z,16.80
2019-04-25T06:18:44.820Z,17.00
2019-04-25T06:21:14.437Z,17.00
2019-04-25T06:23:47.850Z,17.10
2019-04-25T06:26:26.678Z,17.30
2019-04-25T06:28:53.798Z,17.40
2019-04-25T06:31:21.351Z,17.50
2019-04-25T06:33:50.978Z,17.50
2019-04-25T06:36:20.316Z,17.50
2019-04-25T06:38:49.907Z,17.60
2019-04-25T06:41:18.841Z,17.60
2019-04-25T06:43:49.450Z,17.60
2019-04-25T06:46:24.475Z,17.60
2019-04-25T06:49:13.482Z,17.70
2019-04-25T06:51:48.952Z,17.80
2019-04-25T06:54:18.306Z,17.90
2019-04-25T06:56:47.181Z,18.10
2019-04-25T06:59:16.176Z,18.10
2019-04-25T07:01:45.186Z,18.10
2019-04-25T07:04:16.184Z,18.00
2019-04-25T07:06:45.758Z,18.20
2019-04-25T07:09:14.816Z,18.20
2019-04-25T07:11:43.992Z,18.30
2019-04-25T07:14:15.265Z,18.40
2019-04-25T07:16:45.753Z,18.50
2019-04-25T07:19:17.441Z,18.60
2019-04-25T07:21:45.120Z,18.80
2019-04-25T07:24:17.594Z,18.90
2019-04-25T07:27:03.759Z,18.90
2019-04-25T07:29:37.036Z,19.00
2019-04-25T07:32:21.140Z,19.10
2019-04-25T07:34:50.021Z,19.20
2019-04-25T07:37:18.991Z,19.20
2019-04-25T07:39:47.970Z,19.30
2019-04-25T07:42:16.762Z,19.40
2019-04-25T07:44:52.143Z,19.50
2019-04-25T07:50:27.002Z,19.50
2019-04-25T07:52:55.771Z,19.60
2019-04-25T07:55:24.552Z,19.60
2019-04-25T07:57:53.485Z,19.70
2019-04-25T08:00:24.055Z,19.70
2019-04-25T08:02:54.295Z,19.80
2019-04-25T08:05:24.188Z,19.80
2019-04-25T08:07:53.628Z,20.00
2019-04-25T08:10:24.641Z,19.90
2019-04-25T08:12:53.718Z,19.90
2019-04-25T08:15:28.229Z,20.00
2019-04-25T08:18:01.798Z,20.10
2019-04-25T08:20:31.118Z,20.10
2019-04-25T08:23:01.699Z,20.10
2019-04-25T08:25:30.804Z,20.20
2019-04-25T08:27:59.881Z,20.10
2019-04-25T08:30:29.758Z,20.10
2019-04-25T08:32:58.823Z,20.10
2019-04-25T08:35:27.837Z,20.10
2019-04-25T08:37:56.765Z,20.20
2019-04-25T08:40:26.978Z,20.20
2019-04-25T08:42:55.966Z,20.20
2019-04-25T08:45:25.157Z,20.10
2019-04-25T08:47:53.977Z,20.10
2019-04-25T08:50:31.314Z,20.20
2019-04-25T08:52:57.772Z,20.30
2019-04-25T08:55:40.277Z,20.40
2019-04-25T08:58:26.918Z,20.40
2019-04-25T09:01:04.021Z,20.40
2019-04-25T09:03:46.409Z,20.50
2019-04-25T09:06:15.361Z,20.60
2019-04-25T09:08:46.649Z,20.60
2019-04-25T09:11:15.737Z,20.60
2019-04-25T09:13:45.061Z,20.60
2019-04-25T09:16:15.516Z,20.70
2019-04-25T09:18:45.376Z,20.70
2019-04-25T09:21:16.408Z,20.70
2019-04-25T09:23:45.284Z,20.70
2019-04-25T09:26:14.415Z,20.70
2019-04-25T09:28:45.338Z,20.70
2019-04-25T09:31:14.088Z,20.70
2019-04-25T09:33:45.098Z,20.70
2019-04-25T09:36:14.169Z,20.60
2019-04-25T09:38:46.982Z,20.70
2019-04-25T09:41:15.240Z,20.80
2019-04-25T09:43:46.619Z,20.90
2019-04-25T09:46:24.989Z,21.00
2019-04-25T09:48:55.662Z,20.90
2019-04-25T09:51:26.233Z,21.00
2019-04-25T09:53:59.674Z,21.10
2019-04-25T09:56:31.209Z,21.00
2019-04-25T09:59:04.488Z,21.10
2019-04-25T10:01:33.921Z,21.20
2019-04-25T10:04:05.730Z,21.20
2019-04-25T10:06:37.176Z,21.20
2019-04-25T10:09:08.300Z,21.30
2019-04-25T10:11:39.853Z,21.40
2019-04-25T10:14:40.877Z,21.40
2019-04-25T10:17:09.770Z,21.40
2019-04-25T10:19:39.134Z,21.40
2019-04-25T10:22:08.238Z,21.40
2019-04-25T10:24:42.681Z,21.40
2019-04-25T10:27:11.574Z,21.50
2019-04-25T10:29:47.296Z,21.60
2019-04-25T10:32:13.273Z,21.70
2019-04-25T10:34:44.608Z,21.70
2019-04-25T10:37:13.784Z,21.70
2019-04-25T10:39:43.784Z,21.70
2019-04-25T10:42:13.592Z,21.80
2019-04-25T10:44:42.530Z,21.80
2019-04-25T10:47:11.605Z,21.80
2019-04-25T10:49:41.422Z,21.70
2019-04-25T10:52:11.595Z,21.70
2019-04-25T10:54:41.217Z,21.90
2019-04-25T10:57:10.250Z,22.00
2019-04-25T10:59:51.967Z,22.10
2019-04-25T11:02:10.613Z,22.10
2019-04-25T11:04:47.034Z,22.20
2019-04-25T11:07:14.767Z,22.20
2019-04-25T11:09:45.560Z,22.30
2019-04-25T11:12:14.977Z,22.30
2019-04-25T11:14:44.298Z,22.30
2019-04-25T11:17:15.457Z,22.30
2019-04-25T11:19:44.663Z,22.20
2019-04-25T11:22:15.618Z,22.20
2019-04-25T11:24:44.500Z,22.20
2019-04-25T11:27:13.578Z,22.30
2019-04-25T11:29:43.195Z,22.30
2019-04-25T11:32:14.854Z,22.30
2019-04-25T11:34:46.093Z,22.30
2019-04-25T11:37:14.770Z,22.30
2019-04-25T11:39:48.385Z,22.30
2019-04-25T11:42:17.341Z,22.40
2019-04-25T11:44:46.271Z,22.50
2019-04-25T11:47:15.622Z,22.50
2019-04-25T11:49:46.361Z,22.30
2019-04-25T11:52:21.405Z,22.30
2019-04-25T11:54:46.733Z,22.30
2019-04-25T11:57:15.860Z,22.50
2019-04-25T11:59:47.952Z,22.60
2019-04-25T12:02:16.093Z,22.60
2019-04-25T12:04:46.416Z,22.60
2019-04-25T12:07:14.970Z,22.60
2019-04-25T12:09:46.494Z,22.70
2019-04-25T12:12:14.715Z,22.70
2019-04-25T12:14:45.086Z,22.70
2019-04-25T12:17:13.648Z,22.80
2019-04-25T12:19:42.683Z,22.90
2019-04-25T12:22:13.398Z,23.10
2019-04-25T12:24:44.511Z,23.30
2019-04-25T12:27:12.680Z,23.50
2019-04-25T12:29:41.682Z,23.70
2019-04-25T12:32:10.714Z,23.80
2019-04-25T12:34:39.656Z,23.90
2019-04-25T12:37:08.754Z,24.10
2019-04-25T12:39:37.660Z,24.10
2019-04-25T12:42:07.007Z,24.10
2019-04-25T12:44:54.646Z,24.10
2019-04-25T12:47:27.265Z,24.20
2019-04-25T12:49:56.140Z,24.00
2019-04-25T12:52:25.000Z,24.00
2019-04-25T12:54:57.088Z,24.10
2019-04-25T12:57:25.451Z,24.20
2019-04-25T12:59:55.445Z,24.40
2019-04-25T13:02:24.542Z,24.40
2019-04-25T13:04:55.514Z,24.20
2019-04-25T13:07:24.856Z,24.30
2019-04-25T13:09:53.878Z,24.20
2019-04-25T13:12:23.430Z,24.20
2019-04-25T13:14:52.507Z,24.20
2019-04-25T13:17:24.208Z,24.20
2019-04-25T13:19:54.337Z,24.00
2019-04-25T13:22:24.925Z,24.00
2019-04-25T13:24:53.898Z,24.10
2019-04-25T13:27:24.564Z,24.10
2019-04-25T13:29:54.153Z,24.00
2019-04-25T13:32:24.753Z,24.00
2019-04-25T13:34:55.222Z,23.90
2019-04-25T13:37:24.233Z,23.90
2019-04-25T13:39:54.160Z,23.80
2019-04-25T13:42:24.522Z,23.80
2019-04-25T13:44:54.309Z,23.70
2019-04-25T13:47:30.682Z,23.70
2019-04-25T13:49:59.822Z,23.60
2019-04-25T13:52:28.977Z,23.60
2019-04-25T13:54:57.797Z,23.60
2019-04-25T13:57:26.664Z,23.50
2019-04-25T13:59:56.033Z,23.50
2019-04-25T14:02:24.889Z,23.40
2019-04-25T14:04:53.818Z,23.40
2019-04-25T14:07:22.981Z,23.40
2019-04-25T14:09:53.250Z,23.40
2019-04-25T14:12:23.624Z,23.40
2019-04-25T14:14:54.050Z,23.40
2019-04-25T14:17:29.033Z,23.30
2019-04-25T14:20:02.222Z,23.30
2019-04-25T14:22:31.422Z,23.30
2019-04-25T14:25:03.934Z,23.40
2019-04-25T14:27:33.925Z,23.40
2019-04-25T14:30:03.936Z,23.60
2019-04-25T14:32:35.104Z,23.70
2019-04-25T14:35:05.046Z,23.90
2019-04-25T14:37:39.439Z,23.90
2019-04-25T14:40:06.279Z,23.90
2019-04-25T14:42:37.266Z,23.80
2019-04-25T14:45:08.558Z,23.70
2019-04-25T14:47:37.407Z,23.70
2019-04-25T14:50:07.394Z,23.60
2019-04-25T14:52:36.700Z,23.50
2019-04-25T14:55:14.610Z,23.50
2019-04-25T14:57:43.617Z,23.30
2019-04-25T15:00:15.671Z,23.40
2019-04-25T15:02:45.304Z,23.40
2019-04-25T15:05:15.109Z,23.50
2019-04-25T15:07:45.054Z,23.50
2019-04-25T15:10:14.028Z,23.50
2019-04-25T15:12:42.976Z,23.50
2019-04-25T15:15:12.037Z,23.50
2019-04-25T15:17:46.532Z,23.50
2019-04-25T15:20:11.820Z,23.40
2019-04-25T15:22:40.835Z,23.40
2019-04-25T15:25:09.806Z,23.30
2019-04-25T15:27:38.797Z,23.30
2019-04-25T15:30:09.406Z,23.30
2019-04-25T15:32:39.295Z,23.20
2019-04-25T15:35:09.862Z,23.10
2019-04-25T15:37:52.217Z,23.00
2019-04-25T15:40:26.356Z,22.90
2019-04-25T15:43:12.808Z,22.90
2019-04-25T15:45:49.280Z,22.90
2019-04-25T15:48:18.142Z,22.90
2019-04-25T15:50:47.053Z,23.00
2019-04-25T15:53:16.033Z,23.00
2019-04-25T15:55:45.667Z,22.90
2019-04-25T15:58:15.698Z,22.90
2019-04-25T16:00:44.943Z,22.80
2019-04-25T16:03:14.045Z,22.60
2019-04-25T16:05:44.522Z,22.60
2019-04-25T16:08:13.446Z,22.50
2019-04-25T16:10:43.757Z,22.50
2019-04-25T16:13:15.475Z,22.50
2019-04-25T16:15:45.269Z,22.40
2019-04-25T16:18:14.445Z,22.40
2019-04-25T16:20:43.262Z,22.30
2019-04-25T16:23:12.528Z,22.30
2019-04-25T16:25:41.566Z,22.10
2019-04-25T16:28:10.633Z,22.00
2019-04-25T16:30:39.623Z,21.80
2019-04-25T16:33:08.701Z,21.70
2019-04-25T16:35:37.851Z,21.60
2019-04-25T16:38:07.419Z,21.50
2019-04-25T16:40:37.210Z,21.50
2019-04-25T16:43:07.707Z,21.40
2019-04-25T16:45:38.230Z,21.30
2019-04-25T16:48:07.108Z,21.20
2019-04-25T16:50:36.525Z,21.10
2019-04-25T16:53:05.567Z,21.00
2019-04-25T16:55:34.425Z,21.00
2019-04-25T16:58:03.465Z,21.00
2019-04-25T17:00:44.734Z,20.90
2019-04-25T17:03:16.103Z,20.80
2019-04-25T17:05:45.267Z,20.70
2019-04-25T17:08:14.525Z,20.60
2019-04-25T17:10:45.634Z,20.50
2019-04-25T17:13:14.643Z,20.40
2019-04-25T17:15:51.696Z,20.30
2019-04-25T17:18:23.094Z,20.20
2019-04-25T17:20:53.655Z,20.20
2019-04-25T17:23:24.235Z,20.20
2019-04-25T17:25:53.977Z,20.10
2019-04-25T17:28:23.152Z,20.10
2019-04-25T17:31:02.286Z,20.10
2019-04-25T17:33:35.681Z,20.00
2019-04-25T17:36:06.409Z,19.90
2019-04-25T17:38:39.854Z,19.90
2019-04-25T17:41:09.255Z,19.80
2019-04-25T17:43:38.511Z,19.70
2019-04-25T17:46:10.929Z,19.60
2019-04-25T17:48:40.514Z,19.50
2019-04-25T17:51:09.500Z,19.40
2019-04-25T17:53:39.087Z,19.30
2019-04-25T17:56:07.966Z,19.20
2019-04-25T17:58:36.991Z,19.10
2019-04-25T18:01:07.352Z,19.00
2019-04-25T18:03:37.302Z,18.90
2019-04-25T18:06:06.140Z,18.80
2019-04-25T18:08:35.616Z,18.60
2019-04-25T18:11:04.807Z,18.60
2019-04-25T18:13:34.459Z,18.50
2019-04-25T18:16:05.971Z,18.40
2019-04-25T18:18:47.935Z,18.30
2019-04-25T18:21:17.201Z,18.30
2019-04-25T18:23:50.600Z,18.20
2019-04-25T18:26:26.700Z,18.20
2019-04-25T18:28:57.354Z,18.20
2019-04-25T18:31:26.215Z,18.20
2019-04-25T18:33:57.078Z,18.20
2019-04-25T18:36:38.704Z,18.20
2019-04-25T18:39:23.915Z,18.10
2019-04-25T18:41:54.555Z,18.10
2019-04-25T18:44:23.377Z,18.10
2019-04-25T18:46:52.455Z,18.00
2019-04-25T18:49:21.537Z,18.00
2019-04-25T18:51:57.531Z,18.00
2019-04-25T18:54:37.440Z,18.00
2019-04-25T18:57:25.410Z,18.00
2019-04-25T19:00:12.221Z,18.00
2019-04-25T19:02:42.699Z,18.10
2019-04-25T19:05:17.330Z,18.20
2019-04-25T19:07:46.067Z,18.20
2019-04-25T19:10:15.041Z,18.20
2019-04-25T19:12:45.937Z,18.20
2019-04-25T19:15:14.748Z,18.20
2019-04-25T19:17:47.410Z,18.20
2019-04-25T19:20:17.590Z,18.20
2019-04-25T19:22:46.539Z,18.20
2019-04-25T19:25:15.473Z,18.20
2019-04-25T19:27:46.458Z,18.20
2019-04-25T19:30:17.876Z,18.20
2019-04-25T19:32:47.752Z,18.20
2019-04-25T19:35:17.666Z,18.20
2019-04-25T19:37:46.553Z,18.10
2019-04-25T19:40:17.407Z,18.00
2019-04-25T19:42:58.768Z,17.90
2019-04-25T19:45:25.545Z,17.80
2019-04-25T19:47:55.969Z,17.70
2019-04-25T19:50:24.777Z,17.60
2019-04-25T19:52:53.739Z,17.40
2019-04-25T19:55:22.710Z,17.40
2019-04-25T19:57:52.432Z,17.30
2019-04-25T20:00:21.910Z,17.10
2019-04-25T20:02:55.041Z,17.00
2019-04-25T20:05:36.610Z,16.90
2019-04-25T20:08:10.496Z,16.80
2019-04-25T20:10:41.053Z,16.70
2019-04-25T20:13:09.982Z,16.60
2019-04-25T20:15:40.703Z,16.60
2019-04-25T20:18:09.496Z,16.50
2019-04-25T20:20:38.470Z,16.50
2019-04-25T20:23:07.478Z,16.50
2019-04-25T20:25:36.533Z,16.40
2019-04-25T20:28:05.462Z,16.50
2019-04-25T20:30:34.510Z,16.50
2019-04-25T20:33:03.452Z,16.40
2019-04-25T20:35:32.438Z,16.40
2019-04-25T20:38:01.434Z,16.50
2019-04-25T20:40:31.335Z,16.50
2019-04-25T20:43:00.343Z,16.50
2019-04-25T20:45:31.721Z,16.50
2019-04-25T20:48:01.146Z,16.50
2019-04-25T20:50:30.062Z,16.50
2019-04-25T20:52:59.073Z,16.50
2019-04-25T20:55:29.937Z,16.50
2019-04-25T20:57:57.952Z,16.50
2019-04-25T21:00:43.859Z,16.60
2019-04-25T21:03:12.873Z,16.50
2019-04-25T21:05:43.522Z,16.50
2019-04-25T21:08:12.410Z,16.40
2019-04-25T21:10:41.373Z,16.50
2019-04-25T21:13:13.157Z,16.50
2019-04-25T21:15:50.731Z,16.40
2019-04-25T21:18:21.156Z,16.40
2019-04-25T21:20:50.674Z,16.40
2019-04-25T21:23:20.558Z,16.40
2019-04-25T21:25:51.449Z,16.40
2019-04-25T21:28:20.633Z,16.40
2019-04-25T21:30:51.234Z,16.40
2019-04-25T21:33:19.549Z,16.30
2019-04-25T21:35:48.855Z,16.30
2019-04-25T21:38:17.908Z,16.30
2019-04-25T21:40:54.737Z,16.20
2019-04-25T21:43:29.310Z,16.20
2019-04-25T21:45:58.677Z,16.10
2019-04-25T21:48:28.310Z,16.00
2019-04-25T21:50:57.548Z,16.00
2019-04-25T21:53:26.550Z,15.90
2019-04-25T21:55:55.561Z,15.90
2019-04-25T21:58:24.640Z,15.90
2019-04-25T22:00:56.501Z,15.90
2019-04-25T22:03:26.912Z,15.80
2019-04-25T22:05:56.846Z,15.90
2019-04-25T22:08:25.762Z,15.80
2019-04-25T22:10:55.931Z,15.80
2019-04-25T22:13:25.024Z,15.70
2019-04-25T22:15:55.089Z,15.70
2019-04-25T22:18:25.140Z,15.70
2019-04-25T22:20:54.086Z,15.70
2019-04-25T22:23:23.168Z,15.70
2019-04-25T22:25:52.358Z,15.70
2019-04-25T22:28:21.662Z,15.60
2019-04-25T22:30:52.602Z,15.60
2019-04-25T22:33:39.438Z,15.50
2019-04-25T22:36:12.654Z,15.50
2019-04-25T22:38:41.604Z,15.40
2019-04-25T22:41:10.819Z,15.30
2019-04-25T22:43:42.198Z,15.20
2019-04-25T22:46:11.522Z,15.20
2019-04-25T22:48:49.960Z,15.10
2019-04-25T22:51:20.034Z,15.10
2019-04-25T22:53:49.394Z,15.10
2019-04-25T22:56:18.382Z,15.00
2019-04-25T22:58:47.280Z,15.00
2019-04-25T23:01:33.050Z,14.90
2019-04-25T23:04:19.803Z,14.90
2019-04-25T23:06:48.863Z,14.80
2019-04-25T23:09:17.875Z,14.80
2019-04-25T23:11:47.038Z,14.80
2019-04-25T23:14:16.088Z,14.80
2019-04-25T23:16:45.096Z,14.70
2019-04-25T23:19:14.034Z,14.70
2019-04-25T23:21:43.098Z,14.70
2019-04-25T23:24:13.027Z,14.70
2019-04-25T23:26:55.477Z,14.70
2019-04-25T23:29:24.517Z,14.70
2019-04-25T23:31:53.430Z,14.70
2019-04-25T23:34:22.429Z,14.80
2019-04-25T23:36:51.409Z,14.90
2019-04-25T23:39:20.466Z,14.90
2019-04-25T23:41:49.461Z,15.00
2019-04-25T23:44:19.330Z,14.90
2019-04-25T23:46:48.313Z,15.00
2019-04-25T23:49:19.122Z,15.00
2019-04-25T23:51:48.463Z,15.00
2019-04-25T23:54:17.440Z,15.00
2019-04-25T23:56:46.434Z,15.00
2019-04-25T23:59:15.790Z,15.00
